West Columbia, SC

8:28 PM EDT on August 20, 2014 (GMT -0400)
Columbia Metro | Change Station
CLOSE
Current Station
Airport
Location: Columbia,
Elevation: 223 ft
Nearby Weather Stations

Elev 223 ft 33.94 °N, 81.12 °W | Updated 32 minutes ago

Mostly Cloudy
Mostly Cloudy
87 °F
Feels Like 94 °F
N
0
Wind Variable Wind from North

Today
High -- | Low -- °F
--% Chance of Precip.
Yesterday
High -- | Low -- °F
Precip. -- in
6:49 AM 8:05 PM
Waning Crescent, 18% visible
Pressure 29.96 in
Visibility 10.0 miles
Clouds Scattered Clouds 7000 ft
Mostly Cloudy 15000 ft
Heat Index 94 °F
Dew Point 72 °F
Humidity 61%
Rainfall 0.00 in
Snow Depth Not available.
UV 0 out of 12
Pollen 7.60 out of 12
Ozone Good
Flu Activity Not available.
METAR KCAE 202356Z 00000KT 10SM SCT070 BKN150 31/22 A2996 RMK AO2 SLP143 T03060222 10361 20306 53007

More Conditions Fewer Conditions

Pressure 29.96 in
Visibility 10.0 miles
Clouds Scattered Clouds 7000 ft
Mostly Cloudy 15000 ft
Heat Index 94 °F
Dew Point 72 °F
Humidity 61%
Rainfall 0.00 in
Snow Depth Not available.
UV 0 out of 12
Pollen 7.60 out of 12
Ozone Good
Flu Activity Not available.
METAR KCAE 202356Z 00000KT 10SM SCT070 BKN150 31/22 A2996 RMK AO2 SLP143 T03060222 10361 20306 53007

More Conditions Fewer Conditions

10-Day Weather Forecast

Almanac

Astronomy

Aug. 20, 2014 Rise Set
Actual Time 6:49 AM EDT 8:05 PM EDT
Civil Twilight 6:23 AM EDT 8:31 PM EDT
Nautical Twilight 5:52 AM EDT 9:02 PM EDT
Astronomical Twilight 5:20 AM EDT 9:34 PM EDT
Moon 2:33 AM EDT (8/20) 4:44 PM EDT (8/20)
Length of Visible Light 14h 07m
Length of Day
13h 15m
Tomorrow will be 1m 55s shorter.
Waning Crescent, 18% of the Moon is Illuminated
Today
Waning Crescent
Aug 25
New
Sep 2
First Quarter
Sep 8
Full
Sep 15
Last Quarter

Today's Extremes

State Highs State Lows

Community

WunderPhotos

Upload Photos

1,745,807 photos uploaded!

WunderBlogs® & News

Nearby

Air Quality

  Air Quality AQ Index Pollutant
Yesterday Good
OZONE
Current Good
OZONE
Wednesday Good
OZONE
Thursday Good
OZONE

Snow Depth

Station Depth Elevation
No new snow has been reported.

Earthquake Activity

City Distance Mag. Time & Date
No recent earthquake activity has been reported nearby.
Minimum magnitude displayed is 2.5.

Coastal Water Temperatures

Place Temperature
No Stations Reporting

Nearby Weather Stations